createdAt,value
2018-12-09T00:00:12.824Z,6.90
2018-12-09T00:02:40.286Z,6.90
2018-12-09T00:05:07.762Z,6.90
2018-12-09T00:07:35.397Z,6.80
2018-12-09T00:10:02.913Z,6.80
2018-12-09T00:12:31.225Z,6.80
2018-12-09T00:14:58.769Z,6.70
2018-12-09T00:17:26.201Z,6.70
2018-12-09T00:19:53.755Z,6.70
2018-12-09T00:22:21.190Z,6.70
2018-12-09T00:24:48.636Z,6.60
2018-12-09T00:27:16.129Z,6.60
2018-12-09T00:29:44.364Z,6.60
2018-12-09T00:32:11.901Z,6.60
2018-12-09T00:34:39.560Z,6.70
2018-12-09T00:37:07.024Z,6.70
2018-12-09T00:39:34.600Z,6.70
2018-12-09T00:42:02.110Z,6.70
2018-12-09T00:44:29.777Z,6.70
2018-12-09T00:46:57.226Z,6.80
2018-12-09T00:49:24.680Z,6.80
2018-12-09T00:51:52.817Z,6.80
2018-12-09T00:54:20.445Z,6.80
2018-12-09T00:56:48.118Z,6.80
2018-12-09T00:59:15.724Z,6.80
2018-12-09T01:01:43.401Z,6.90
2018-12-09T01:04:11.821Z,6.90
2018-12-09T01:06:39.584Z,7.00
2018-12-09T01:09:07.405Z,6.90
2018-12-09T01:11:34.903Z,7.00
2018-12-09T01:14:06.053Z,7.00
2018-12-09T01:16:33.511Z,7.00
2018-12-09T01:19:01.300Z,7.10
2018-12-09T01:21:28.741Z,7.10
2018-12-09T01:23:56.189Z,7.10
2018-12-09T01:26:23.697Z,7.10
2018-12-09T01:28:51.148Z,7.20
2018-12-09T01:31:18.598Z,7.20
2018-12-09T01:33:46.097Z,7.30
2018-12-09T01:36:13.787Z,7.40
2018-12-09T01:38:41.765Z,7.50
2018-12-09T01:41:09.681Z,7.50
2018-12-09T01:43:37.133Z,7.50
2018-12-09T01:46:04.599Z,7.50
2018-12-09T01:48:32.179Z,7.60
2018-12-09T01:50:59.972Z,7.60
2018-12-09T01:53:37.969Z,7.60
2018-12-09T01:56:05.513Z,7.60
2018-12-09T01:58:32.957Z,7.60
2018-12-09T02:01:00.922Z,7.70
2018-12-09T02:03:28.501Z,7.70
2018-12-09T02:05:55.962Z,7.80
2018-12-09T02:08:24.207Z,7.90
2018-12-09T02:10:51.702Z,7.90
2018-12-09T02:13:19.256Z,7.90
2018-12-09T02:15:46.932Z,7.90
2018-12-09T02:18:14.451Z,8.00
2018-12-09T02:20:41.914Z,8.10
2018-12-09T02:23:09.389Z,8.30
2018-12-09T02:25:37.167Z,8.20
2018-12-09T02:28:04.757Z,8.20
2018-12-09T02:30:32.734Z,8.30
2018-12-09T02:33:00.302Z,8.40
2018-12-09T02:35:32.205Z,8.40
2018-12-09T02:37:59.763Z,8.40
2018-12-09T02:40:27.745Z,8.40
2018-12-09T02:42:55.318Z,8.30
2018-12-09T02:45:22.749Z,8.40
2018-12-09T02:47:50.211Z,8.40
2018-12-09T02:50:17.769Z,8.40
2018-12-09T02:52:45.295Z,8.40
2018-12-09T02:55:12.897Z,8.30
2018-12-09T02:57:41.270Z,8.40
2018-12-09T03:00:09.210Z,8.40
2018-12-09T03:02:36.794Z,8.40
2018-12-09T03:05:04.686Z,8.40
2018-12-09T03:07:32.212Z,8.40
2018-12-09T03:10:00.248Z,8.50
2018-12-09T03:12:27.760Z,8.60
2018-12-09T03:14:55.196Z,8.60
2018-12-09T03:17:22.671Z,8.60
2018-12-09T03:19:50.125Z,8.60
2018-12-09T03:22:17.982Z,8.70
2018-12-09T03:24:45.538Z,8.60
2018-12-09T03:27:13.017Z,8.70
2018-12-09T03:29:40.504Z,8.70
2018-12-09T03:32:08.951Z,8.70
2018-12-09T03:34:36.521Z,8.70
2018-12-09T03:37:03.973Z,8.60
2018-12-09T03:39:31.726Z,8.60
2018-12-09T03:41:59.299Z,8.50
2018-12-09T03:44:26.823Z,8.30
2018-12-09T03:46:58.098Z,8.00
2018-12-09T03:49:25.547Z,7.30
2018-12-09T03:51:53.136Z,7.00
2018-12-09T03:54:20.567Z,6.30
2018-12-09T03:56:48.139Z,6.10
2018-12-09T03:59:15.588Z,5.80
2018-12-09T04:01:43.463Z,5.70
2018-12-09T04:04:11.930Z,5.60
2018-12-09T04:06:40.010Z,5.60
2018-12-09T04:09:07.567Z,5.60
2018-12-09T04:11:35.015Z,5.60
2018-12-09T04:14:02.572Z,5.60
2018-12-09T04:16:30.183Z,5.60
2018-12-09T04:18:57.685Z,5.50
2018-12-09T04:21:25.937Z,5.60
2018-12-09T04:23:53.509Z,5.50
2018-12-09T04:26:21.039Z,5.50
2018-12-09T04:28:48.599Z,5.50
2018-12-09T04:31:16.413Z,5.50
2018-12-09T04:33:44.896Z,5.40
2018-12-09T04:36:12.482Z,5.40
2018-12-09T04:38:40.067Z,5.40
2018-12-09T04:41:07.585Z,5.40
2018-12-09T04:43:35.054Z,5.40
2018-12-09T04:46:02.490Z,5.40
2018-12-09T04:48:30.072Z,5.50
2018-12-09T04:50:57.503Z,5.50
2018-12-09T04:53:42.574Z,5.50
2018-12-09T04:56:11.433Z,5.60
2018-12-09T04:58:42.809Z,5.60
2018-12-09T05:01:10.270Z,5.70
2018-12-09T05:03:37.778Z,5.70
2018-12-09T05:06:05.204Z,5.70
2018-12-09T05:08:32.687Z,5.80
2018-12-09T05:11:00.929Z,5.80
2018-12-09T05:13:28.419Z,5.90
2018-12-09T05:15:55.856Z,5.90
2018-12-09T05:18:24.720Z,6.00
2018-12-09T05:20:52.261Z,6.00
2018-12-09T05:23:19.969Z,6.00
2018-12-09T05:25:47.424Z,6.10
2018-12-09T05:28:14.861Z,6.10
2018-12-09T05:30:42.359Z,6.20
2018-12-09T05:33:09.969Z,6.20
2018-12-09T05:35:37.541Z,6.20
2018-12-09T05:38:05.017Z,6.30
2018-12-09T05:40:33.459Z,6.30
2018-12-09T05:43:01.057Z,6.30
2018-12-09T05:45:28.497Z,6.30
2018-12-09T05:47:55.960Z,6.30
2018-12-09T05:50:23.511Z,6.30
2018-12-09T05:52:51.382Z,6.30
2018-12-09T05:55:18.834Z,6.30
2018-12-09T05:57:47.525Z,6.30
2018-12-09T06:00:15.041Z,6.30
2018-12-09T06:02:52.043Z,6.30
2018-12-09T06:05:19.538Z,6.30
2018-12-09T06:07:47.041Z,6.30
2018-12-09T06:10:14.526Z,6.30
2018-12-09T06:12:42.916Z,6.30
2018-12-09T06:15:10.368Z,6.30
2018-12-09T06:17:37.961Z,6.30
2018-12-09T06:20:05.905Z,6.30
2018-12-09T06:22:33.359Z,6.20
2018-12-09T06:25:00.946Z,6.20
2018-12-09T06:27:28.747Z,6.30
2018-12-09T06:29:56.646Z,6.40
2018-12-09T06:32:24.107Z,6.40
2018-12-09T06:34:51.685Z,6.40
2018-12-09T06:37:19.161Z,6.50
2018-12-09T06:39:46.586Z,6.30
2018-12-09T06:42:14.027Z,6.30
2018-12-09T06:44:41.491Z,6.20
2018-12-09T06:47:09.094Z,6.10
2018-12-09T06:49:36.627Z,6.10
2018-12-09T06:52:04.132Z,6.00
2018-12-09T06:54:31.692Z,6.00
2018-12-09T06:56:59.621Z,6.00
2018-12-09T06:59:27.477Z,6.00
2018-12-09T07:01:55.132Z,6.00
2018-12-09T07:04:25.655Z,6.00
2018-12-09T07:06:53.209Z,6.00
2018-12-09T07:09:20.686Z,6.00
2018-12-09T07:11:49.138Z,6.00
2018-12-09T07:14:16.676Z,6.00
2018-12-09T07:16:44.277Z,6.00
2018-12-09T07:19:11.836Z,6.00
2018-12-09T07:21:39.327Z,6.00
2018-12-09T07:24:06.762Z,5.90
2018-12-09T07:26:34.298Z,5.90
2018-12-09T07:29:02.779Z,5.90
2018-12-09T07:31:30.396Z,5.90
2018-12-09T07:33:58.715Z,6.00
2018-12-09T07:36:26.282Z,6.00
2018-12-09T07:38:53.747Z,6.20
2018-12-09T07:41:22.218Z,6.20
2018-12-09T07:43:49.690Z,6.20
2018-12-09T07:46:17.338Z,6.30
2018-12-09T07:48:44.786Z,6.40
2018-12-09T07:51:12.726Z,6.40
2018-12-09T07:53:40.185Z,6.40
2018-12-09T07:56:07.783Z,6.40
2018-12-09T07:58:35.742Z,6.50
2018-12-09T08:01:03.213Z,6.50
2018-12-09T08:03:30.672Z,6.60
2018-12-09T08:05:58.133Z,6.60
2018-12-09T08:08:25.617Z,6.70
2018-12-09T08:10:53.038Z,6.80
2018-12-09T08:13:20.497Z,6.80
2018-12-09T08:15:47.950Z,6.90
2018-12-09T08:18:15.718Z,6.90
2018-12-09T08:20:47.794Z,7.00
2018-12-09T08:23:15.230Z,7.00
2018-12-09T08:25:42.748Z,7.10
2018-12-09T08:28:10.247Z,7.10
2018-12-09T08:30:38.650Z,7.20
2018-12-09T08:33:06.187Z,7.30
2018-12-09T08:35:33.947Z,7.30
2018-12-09T08:38:01.413Z,7.40
2018-12-09T08:40:29.233Z,7.50
2018-12-09T08:42:56.712Z,7.50
2018-12-09T08:45:24.161Z,7.60
2018-12-09T08:47:52.614Z,7.70
2018-12-09T08:50:20.303Z,7.80
2018-12-09T08:52:47.788Z,7.90
2018-12-09T08:55:15.503Z,7.90
2018-12-09T08:57:43.033Z,7.90
2018-12-09T09:00:10.575Z,8.00
2018-12-09T09:02:38.048Z,8.10
2018-12-09T09:05:06.405Z,8.10
2018-12-09T09:07:33.874Z,8.10
2018-12-09T09:10:01.345Z,8.00
2018-12-09T09:12:28.840Z,8.00
2018-12-09T09:14:56.293Z,7.90
2018-12-09T09:17:23.802Z,7.80
2018-12-09T09:19:51.331Z,7.90
2018-12-09T09:22:18.821Z,7.90
2018-12-09T09:24:46.291Z,7.90
2018-12-09T09:27:13.794Z,8.00
2018-12-09T09:29:41.257Z,8.00
2018-12-09T09:32:09.145Z,8.00
2018-12-09T09:34:36.590Z,8.00
2018-12-09T09:37:07.871Z,8.00
2018-12-09T09:39:35.305Z,8.00
2018-12-09T09:42:02.796Z,8.10
2018-12-09T09:44:30.305Z,8.10
2018-12-09T09:46:58.564Z,8.10
2018-12-09T09:49:26.070Z,8.10
2018-12-09T09:51:53.503Z,8.10
2018-12-09T09:54:28.329Z,8.20
2018-12-09T09:56:55.802Z,8.20
2018-12-09T09:59:23.610Z,8.20
2018-12-09T10:01:51.190Z,8.10
2018-12-09T10:04:18.645Z,8.10
2018-12-09T10:06:46.097Z,8.10
2018-12-09T10:09:16.570Z,8.10
2018-12-09T10:11:44.026Z,8.10
2018-12-09T10:14:11.789Z,8.10
2018-12-09T10:16:39.295Z,8.10
2018-12-09T10:19:07.587Z,8.10
2018-12-09T10:21:35.081Z,8.20
2018-12-09T10:24:05.664Z,8.20
2018-12-09T10:26:36.595Z,8.30
2018-12-09T10:29:02.974Z,8.20
2018-12-09T10:31:30.762Z,8.20
2018-12-09T10:33:58.248Z,8.20
2018-12-09T10:36:25.691Z,8.20
2018-12-09T10:38:53.123Z,8.30
2018-12-09T10:41:20.663Z,8.20
2018-12-09T10:43:48.286Z,8.30
2018-12-09T10:48:55.585Z,8.20
2018-12-09T10:51:23.419Z,8.30
2018-12-09T10:53:51.228Z,8.20
2018-12-09T10:56:18.843Z,8.20
2018-12-09T10:58:46.509Z,8.20
2018-12-09T11:01:30.871Z,8.10
2018-12-09T11:03:58.500Z,8.20
2018-12-09T11:06:26.174Z,8.10
2018-12-09T11:08:57.841Z,8.10
2018-12-09T11:11:25.297Z,8.10
2018-12-09T11:13:58.104Z,8.00
2018-12-09T11:16:22.650Z,8.00
2018-12-09T11:18:50.072Z,8.10
2018-12-09T11:21:17.504Z,8.10
2018-12-09T11:23:48.218Z,8.10
2018-12-09T11:26:15.697Z,8.10
2018-12-09T11:28:43.231Z,8.20
2018-12-09T11:31:10.790Z,8.10
2018-12-09T11:33:38.298Z,8.10
2018-12-09T11:36:05.757Z,8.20
2018-12-09T11:38:33.782Z,8.20
2018-12-09T11:41:01.227Z,8.10
2018-12-09T11:43:28.786Z,8.10
2018-12-09T11:45:56.255Z,8.20
2018-12-09T11:48:23.811Z,8.20
2018-12-09T11:50:51.287Z,8.10
2018-12-09T11:53:18.846Z,8.10
2018-12-09T11:55:46.282Z,8.10
2018-12-09T11:58:14.045Z,8.00
2018-12-09T12:00:42.076Z,8.00
2018-12-09T12:03:09.525Z,7.90
2018-12-09T12:05:37.150Z,7.70
2018-12-09T12:08:04.645Z,7.70
2018-12-09T12:10:32.118Z,7.60
2018-12-09T12:12:59.714Z,7.60
2018-12-09T12:15:27.472Z,7.60
2018-12-09T12:17:55.817Z,7.60
2018-12-09T12:20:23.318Z,7.70
2018-12-09T12:22:50.769Z,7.80
2018-12-09T12:25:18.433Z,7.70
2018-12-09T12:27:45.890Z,7.80
2018-12-09T12:30:13.413Z,7.80
2018-12-09T12:32:41.004Z,7.80
2018-12-09T12:35:09.202Z,7.80
2018-12-09T12:37:36.745Z,7.80
2018-12-09T12:40:10.862Z,7.80
2018-12-09T12:42:38.414Z,7.80
2018-12-09T12:45:06.554Z,7.90
2018-12-09T12:47:34.821Z,7.80
2018-12-09T12:50:02.740Z,7.80
2018-12-09T12:52:30.395Z,7.80
2018-12-09T12:54:57.821Z,7.80
2018-12-09T12:57:25.330Z,7.80
2018-12-09T12:59:53.673Z,7.90
2018-12-09T13:02:21.160Z,7.80
2018-12-09T13:04:48.698Z,7.80
2018-12-09T13:07:16.216Z,7.60
2018-12-09T13:09:43.688Z,7.50
2018-12-09T13:12:11.177Z,7.50
2018-12-09T13:14:38.706Z,7.50
2018-12-09T13:17:06.209Z,7.40
2018-12-09T13:19:33.672Z,7.40
2018-12-09T13:22:02.025Z,7.40
2018-12-09T13:24:29.494Z,7.40
2018-12-09T13:26:56.942Z,7.40
2018-12-09T13:29:24.400Z,7.30
2018-12-09T13:31:51.850Z,7.30
2018-12-09T13:34:19.312Z,7.20
2018-12-09T13:36:47.093Z,7.20
2018-12-09T13:39:15.522Z,7.30
2018-12-09T13:41:42.969Z,7.30
2018-12-09T13:44:10.474Z,7.30
2018-12-09T13:46:37.950Z,7.30
2018-12-09T13:49:05.437Z,7.30
2018-12-09T13:51:32.909Z,7.40
2018-12-09T13:54:00.405Z,7.40
2018-12-09T13:56:27.878Z,7.40
2018-12-09T13:58:55.442Z,7.40
2018-12-09T14:01:23.789Z,7.40
2018-12-09T14:03:51.244Z,7.40
2018-12-09T14:06:18.847Z,7.40
2018-12-09T14:08:46.326Z,7.40
2018-12-09T14:11:13.846Z,7.40
2018-12-09T14:13:41.286Z,7.30
2018-12-09T14:16:08.823Z,7.30
2018-12-09T14:18:38.359Z,7.30
2018-12-09T14:21:06.116Z,7.20
2018-12-09T14:23:33.973Z,7.10
2018-12-09T14:26:02.049Z,7.10
2018-12-09T14:28:29.487Z,7.10
2018-12-09T14:30:56.921Z,7.10
2018-12-09T14:33:24.404Z,7.00
2018-12-09T14:35:52.073Z,6.90
2018-12-09T14:38:19.570Z,6.90
2018-12-09T14:40:47.339Z,6.90
2018-12-09T14:43:14.774Z,6.90
2018-12-09T14:45:48.938Z,6.90
2018-12-09T14:48:11.949Z,6.90
2018-12-09T14:50:39.389Z,6.90
2018-12-09T14:53:06.852Z,7.00
2018-12-09T14:55:35.125Z,7.00
2018-12-09T14:58:02.559Z,7.00
2018-12-09T15:00:30.062Z,7.10
2018-12-09T15:02:57.502Z,7.10
2018-12-09T15:05:24.953Z,7.10
2018-12-09T15:07:52.496Z,7.10
2018-12-09T15:10:20.167Z,7.20
2018-12-09T15:12:52.053Z,7.20
2018-12-09T15:15:19.809Z,7.20
2018-12-09T15:17:47.317Z,7.30
2018-12-09T15:20:14.784Z,7.30
2018-12-09T15:22:42.477Z,7.30
2018-12-09T15:25:09.913Z,7.30
2018-12-09T15:27:38.290Z,7.30
2018-12-09T15:30:10.503Z,7.30
2018-12-09T15:32:38.972Z,7.40
2018-12-09T15:35:06.490Z,7.40
2018-12-09T15:37:34.188Z,7.30
2018-12-09T15:40:01.661Z,7.30
2018-12-09T15:42:29.107Z,7.30
2018-12-09T15:45:00.250Z,7.20
2018-12-09T15:47:28.922Z,7.20
2018-12-09T15:49:56.426Z,7.10
2018-12-09T15:52:23.902Z,7.00
2018-12-09T15:54:51.333Z,7.00
2018-12-09T15:57:18.845Z,7.00
2018-12-09T15:59:49.304Z,6.90
2018-12-09T16:02:16.741Z,6.80
2018-12-09T16:04:44.174Z,6.80
2018-12-09T16:07:12.585Z,6.70
2018-12-09T16:09:40.120Z,6.70
2018-12-09T16:12:07.640Z,6.60
2018-12-09T16:14:46.478Z,6.70
2018-12-09T16:17:13.897Z,6.60
2018-12-09T16:19:41.352Z,6.60
2018-12-09T16:22:08.866Z,6.70
2018-12-09T16:24:36.355Z,6.60
2018-12-09T16:27:03.867Z,6.60
2018-12-09T16:29:39.265Z,6.60
2018-12-09T16:32:06.697Z,6.60
2018-12-09T16:34:34.291Z,6.60
2018-12-09T16:37:01.793Z,6.50
2018-12-09T16:39:29.261Z,6.60
2018-12-09T16:41:56.998Z,6.50
2018-12-09T16:44:24.428Z,6.40
2018-12-09T16:46:52.785Z,6.50
2018-12-09T16:49:20.305Z,6.40
2018-12-09T16:51:47.751Z,6.40
2018-12-09T16:54:15.185Z,6.40
2018-12-09T16:56:42.661Z,6.40
2018-12-09T16:59:13.138Z,6.50
2018-12-09T17:01:40.701Z,6.40
2018-12-09T17:04:08.133Z,6.40
2018-12-09T17:06:36.421Z,6.40
2018-12-09T17:09:05.765Z,6.50
2018-12-09T17:11:33.325Z,6.40
2018-12-09T17:14:01.429Z,6.40
2018-12-09T17:16:29.019Z,6.50
2018-12-09T17:18:56.606Z,6.50
2018-12-09T17:21:24.075Z,6.50
2018-12-09T17:23:51.985Z,6.50
2018-12-09T17:26:20.405Z,6.50
2018-12-09T17:28:47.868Z,6.50
2018-12-09T17:31:15.597Z,6.50
2018-12-09T17:33:43.067Z,6.50
2018-12-09T17:36:10.502Z,6.50
2018-12-09T17:38:37.985Z,6.50
2018-12-09T17:41:05.469Z,6.40
2018-12-09T17:43:32.942Z,6.40
2018-12-09T17:46:00.373Z,6.40
2018-12-09T17:48:27.877Z,6.30
2018-12-09T17:50:55.457Z,6.30
2018-12-09T17:53:23.337Z,6.20
2018-12-09T17:55:50.802Z,6.20
2018-12-09T17:58:18.449Z,6.20
2018-12-09T18:00:46.040Z,6.10
2018-12-09T18:03:13.472Z,6.10
2018-12-09T18:05:41.033Z,6.10
2018-12-09T18:08:08.464Z,6.20
2018-12-09T18:10:36.845Z,6.20
2018-12-09T18:13:04.295Z,6.20
2018-12-09T18:15:36.485Z,6.30
2018-12-09T18:18:04.247Z,6.30
2018-12-09T18:20:32.481Z,6.30
2018-12-09T18:22:59.945Z,6.30
2018-12-09T18:25:27.387Z,6.30
2018-12-09T18:27:54.874Z,6.30
2018-12-09T18:30:22.339Z,6.30
2018-12-09T18:32:49.841Z,6.30
2018-12-09T18:35:17.473Z,6.30
2018-12-09T18:37:46.613Z,6.30
2018-12-09T18:40:14.232Z,6.30
2018-12-09T18:42:41.788Z,6.30
2018-12-09T18:45:09.237Z,6.40
2018-12-09T18:47:36.933Z,6.40
2018-12-09T18:50:05.678Z,6.40
2018-12-09T18:52:33.170Z,6.30
2018-12-09T18:55:00.850Z,6.30
2018-12-09T18:57:28.371Z,6.30
2018-12-09T18:59:56.001Z,6.20
2018-12-09T19:02:23.425Z,6.10
2018-12-09T19:04:52.347Z,6.10
2018-12-09T19:07:20.185Z,6.10
2018-12-09T19:09:47.971Z,6.00
2018-12-09T19:12:16.216Z,6.00
2018-12-09T19:14:43.750Z,5.90
2018-12-09T19:17:11.409Z,5.90
2018-12-09T19:19:38.929Z,5.80
2018-12-09T19:22:07.570Z,5.90
2018-12-09T19:24:35.040Z,5.90
2018-12-09T19:27:02.936Z,5.80
2018-12-09T19:29:30.397Z,5.80
2018-12-09T19:32:01.612Z,5.80
2018-12-09T19:34:29.077Z,5.80
2018-12-09T19:36:58.999Z,5.80
2018-12-09T19:39:26.721Z,5.80
2018-12-09T19:41:54.187Z,5.70
2018-12-09T19:44:22.406Z,5.70
2018-12-09T19:46:53.889Z,5.70
2018-12-09T19:49:21.337Z,5.80
2018-12-09T19:51:49.025Z,5.80
2018-12-09T19:54:17.401Z,5.80
2018-12-09T19:56:44.913Z,5.70
2018-12-09T19:59:12.417Z,5.80
2018-12-09T20:01:39.930Z,5.80
2018-12-09T20:04:07.745Z,5.70
2018-12-09T20:06:36.137Z,5.80
2018-12-09T20:09:04.827Z,5.80
2018-12-09T20:11:32.507Z,5.80
2018-12-09T20:13:59.956Z,5.80
2018-12-09T20:16:27.414Z,5.80
2018-12-09T20:18:55.378Z,5.80
2018-12-09T20:21:22.901Z,5.90
2018-12-09T20:23:50.579Z,5.90
2018-12-09T20:26:18.014Z,5.90
2018-12-09T20:28:45.497Z,5.90
2018-12-09T20:31:12.947Z,5.90
2018-12-09T20:33:40.506Z,6.00
2018-12-09T20:36:07.965Z,6.00
2018-12-09T20:38:35.568Z,6.10
2018-12-09T20:41:04.040Z,6.00
2018-12-09T20:43:31.476Z,6.10
2018-12-09T20:45:58.927Z,6.00
2018-12-09T20:48:26.366Z,6.00
2018-12-09T20:50:53.885Z,6.10
2018-12-09T20:53:21.345Z,6.10
2018-12-09T20:55:48.873Z,6.10
2018-12-09T20:58:16.356Z,6.00
2018-12-09T21:00:43.890Z,6.10
2018-12-09T21:03:12.230Z,6.10
2018-12-09T21:05:39.801Z,6.10
2018-12-09T21:08:07.460Z,6.10
2018-12-09T21:10:34.890Z,6.10
2018-12-09T21:13:02.347Z,6.10
2018-12-09T21:15:29.867Z,6.10
2018-12-09T21:17:57.383Z,6.10
2018-12-09T21:20:25.777Z,6.10
2018-12-09T21:22:53.209Z,6.00
2018-12-09T21:25:20.686Z,6.00
2018-12-09T21:27:48.197Z,6.00
2018-12-09T21:30:15.661Z,6.00
2018-12-09T21:32:43.107Z,5.90
2018-12-09T21:35:10.630Z,5.90
2018-12-09T21:37:38.058Z,5.80
2018-12-09T21:40:06.454Z,5.90
2018-12-09T21:42:34.045Z,5.90
2018-12-09T21:45:01.542Z,5.90
2018-12-09T21:47:29.019Z,5.90
2018-12-09T21:49:59.455Z,5.90
2018-12-09T21:52:26.947Z,5.80
2018-12-09T21:54:54.405Z,5.80
2018-12-09T21:57:21.869Z,5.80
2018-12-09T21:59:49.392Z,5.80
2018-12-09T22:02:17.795Z,5.80
2018-12-09T22:04:45.235Z,5.90
2018-12-09T22:07:13.479Z,5.90
2018-12-09T22:09:41.070Z,5.90
2018-12-09T22:12:08.523Z,5.90
2018-12-09T22:14:36.910Z,5.90
2018-12-09T22:17:04.365Z,6.00
2018-12-09T22:19:36.440Z,6.00
2018-12-09T22:22:03.901Z,6.00
2018-12-09T22:24:31.890Z,6.00
2018-12-09T22:26:59.365Z,6.00
2018-12-09T22:29:26.822Z,5.90
2018-12-09T22:31:54.421Z,5.90
2018-12-09T22:34:21.960Z,5.70
2018-12-09T22:36:49.449Z,5.60
2018-12-09T22:39:17.074Z,5.60
2018-12-09T22:41:45.479Z,5.60
2018-12-09T22:44:12.947Z,5.60
2018-12-09T22:46:40.596Z,5.60
2018-12-09T22:49:08.169Z,5.50
2018-12-09T22:51:35.598Z,5.60
2018-12-09T22:54:03.101Z,5.50
2018-12-09T22:56:30.525Z,5.50
2018-12-09T22:58:58.020Z,5.50
2018-12-09T23:01:25.592Z,5.70
2018-12-09T23:03:53.596Z,5.70
2018-12-09T23:06:24.668Z,5.80
2018-12-09T23:08:52.110Z,5.80
2018-12-09T23:11:19.573Z,5.90
2018-12-09T23:13:47.025Z,5.90
2018-12-09T23:16:14.588Z,5.90
2018-12-09T23:18:43.012Z,6.00
2018-12-09T23:21:10.508Z,6.00
2018-12-09T23:23:38.060Z,6.00
2018-12-09T23:26:05.652Z,6.00
2018-12-09T23:28:33.163Z,6.00
2018-12-09T23:31:00.594Z,6.00
2018-12-09T23:33:28.069Z,6.00
2018-12-09T23:35:56.462Z,5.70
2018-12-09T23:38:23.958Z,5.30
2018-12-09T23:40:51.392Z,4.90
2018-12-09T23:43:18.835Z,4.30
2018-12-09T23:45:46.288Z,3.90
2018-12-09T23:48:13.746Z,3.80
2018-12-09T23:50:41.479Z,3.80
2018-12-09T23:53:08.970Z,3.80
2018-12-09T23:55:36.425Z,3.80
2018-12-09T23:58:03.925Z,3.90
